sensor_id;sensor_type;location;lat;lon;timestamp;pressure;altitude;pressure_sealevel;temperature;humidity
38303;BME280;24103;42.454;27.400;2023-01-29T00:00:06;100957.75;;;2.48;100.00
38303;BME280;24103;42.454;27.400;2023-01-29T00:02:34;100963.69;;;2.56;100.00
38303;BME280;24103;42.454;27.400;2023-01-29T00:05:00;100957.00;;;2.43;100.00
38303;BME280;24103;42.454;27.400;2023-01-29T00:07:25;100962.22;;;2.43;100.00
38303;BME280;24103;42.454;27.400;2023-01-29T00:09:51;100958.59;;;2.50;100.00
38303;BME280;24103;42.454;27.400;2023-01-29T00:12:16;100957.69;;;2.53;100.00
38303;BME280;24103;42.454;27.400;2023-01-29T00:14:41;100958.44;;;2.60;100.00
38303;BME280;24103;42.454;27.400;2023-01-29T00:17:07;100955.03;;;2.56;100.00
38303;BME280;24103;42.454;27.400;2023-01-29T00:19:32;100956.50;;;2.71;100.00
38303;BME280;24103;42.454;27.400;2023-01-29T00:21:58;100954.66;;;2.76;100.00
38303;BME280;24103;42.454;27.400;2023-01-29T00:24:23;100960.81;;;2.70;100.00
38303;BME280;24103;42.454;27.400;2023-01-29T00:26:49;100962.66;;;2.65;100.00
38303;BME280;24103;42.454;27.400;2023-01-29T00:29:14;100972.19;;;2.68;100.00
38303;BME280;24103;42.454;27.400;2023-01-29T00:31:42;100972.13;;;2.72;100.00
38303;BME280;24103;42.454;27.400;2023-01-29T00:34:08;100975.66;;;2.68;100.00
38303;BME280;24103;42.454;27.400;2023-01-29T00:36:33;100975.72;;;2.65;100.00
38303;BME280;24103;42.454;27.400;2023-01-29T00:38:59;100987.84;;;2.69;100.00
38303;BME280;24103;42.454;27.400;2023-01-29T00:41:27;100979.94;;;2.72;100.00
38303;BME280;24103;42.454;27.400;2023-01-29T00:44:11;100975.63;;;2.70;100.00
38303;BME280;24103;42.454;27.400;2023-01-29T00:46:55;100974.63;;;2.77;100.00
38303;BME280;24103;42.454;27.400;2023-01-29T00:49:21;100984.44;;;2.64;100.00
38303;BME280;24103;42.454;27.400;2023-01-29T00:51:46;100994.28;;;2.48;100.00
38303;BME280;24103;42.454;27.400;2023-01-29T00:54:31;100986.47;;;2.48;100.00
38303;BME280;24103;42.454;27.400;2023-01-29T00:56:56;100989.16;;;2.42;100.00
38303;BME280;24103;42.454;27.400;2023-01-29T00:59:21;100989.78;;;2.56;100.00
38303;BME280;24103;42.454;27.400;2023-01-29T01:01:47;100994.81;;;2.67;100.00
38303;BME280;24103;42.454;27.400;2023-01-29T01:04:31;100999.38;;;2.56;100.00
38303;BME280;24103;42.454;27.400;2023-01-29T01:06:56;101007.09;;;2.61;100.00
38303;BME280;24103;42.454;27.400;2023-01-29T01:09:22;100995.81;;;2.60;100.00
38303;BME280;24103;42.454;27.400;2023-01-29T01:12:05;100996.56;;;2.67;100.00
38303;BME280;24103;42.454;27.400;2023-01-29T01:14:32;100993.16;;;2.63;100.00
38303;BME280;24103;42.454;27.400;2023-01-29T01:17:00;100996.66;;;2.61;100.00
38303;BME280;24103;42.454;27.400;2023-01-29T01:19:25;100994.91;;;2.63;100.00
38303;BME280;24103;42.454;27.400;2023-01-29T01:21:51;101005.22;;;2.67;100.00
38303;BME280;24103;42.454;27.400;2023-01-29T01:24:16;101001.13;;;2.54;100.00
38303;BME280;24103;42.454;27.400;2023-01-29T01:26:41;101014.03;;;2.62;100.00
38303;BME280;24103;42.454;27.400;2023-01-29T01:29:07;101006.25;;;2.60;100.00
38303;BME280;24103;42.454;27.400;2023-01-29T01:31:33;101000.94;;;2.65;100.00
38303;BME280;24103;42.454;27.400;2023-01-29T01:33:58;101005.50;;;2.53;100.00
38303;BME280;24103;42.454;27.400;2023-01-29T01:36:24;101003.88;;;2.48;100.00
38303;BME280;24103;42.454;27.400;2023-01-29T01:38:49;101008.41;;;2.36;100.00
38303;BME280;24103;42.454;27.400;2023-01-29T01:41:18;101012.66;;;2.40;100.00
38303;BME280;24103;42.454;27.400;2023-01-29T01:43:48;101010.03;;;2.42;100.00
38303;BME280;24103;42.454;27.400;2023-01-29T01:46:14;101004.91;;;2.36;100.00
38303;BME280;24103;42.454;27.400;2023-01-29T01:48:39;101007.50;;;2.36;100.00
38303;BME280;24103;42.454;27.400;2023-01-29T01:51:05;101011.84;;;2.37;100.00
38303;BME280;24103;42.454;27.400;2023-01-29T01:53:32;101012.78;;;2.34;100.00
38303;BME280;24103;42.454;27.400;2023-01-29T01:56:00;101015.47;;;2.28;100.00
38303;BME280;24103;42.454;27.400;2023-01-29T01:58:31;101011.13;;;2.29;100.00
38303;BME280;24103;42.454;27.400;2023-01-29T02:00:57;101018.03;;;2.33;100.00
38303;BME280;24103;42.454;27.400;2023-01-29T02:03:23;101010.25;;;2.28;100.00
38303;BME280;24103;42.454;27.400;2023-01-29T02:06:08;101022.38;;;2.31;100.00
38303;BME280;24103;42.454;27.400;2023-01-29T02:08:54;101017.13;;;2.34;100.00
38303;BME280;24103;42.454;27.400;2023-01-29T02:11:40;101020.47;;;2.40;100.00
38303;BME280;24103;42.454;27.400;2023-01-29T02:14:05;101020.56;;;2.36;100.00
38303;BME280;24103;42.454;27.400;2023-01-29T02:16:32;101025.84;;;2.33;100.00
38303;BME280;24103;42.454;27.400;2023-01-29T02:18:58;101024.94;;;2.34;100.00
38303;BME280;24103;42.454;27.400;2023-01-29T02:27:04;101042.66;;;2.13;100.00
38303;BME280;24103;42.454;27.400;2023-01-29T02:34:40;101054.91;;;2.08;100.00
38303;BME280;24103;42.454;27.400;2023-01-29T02:37:32;101067.13;;;2.03;100.00
38303;BME280;24103;42.454;27.400;2023-01-29T02:40:04;101068.88;;;2.01;100.00
38303;BME280;24103;42.454;27.400;2023-01-29T02:42:34;101067.97;;;2.05;100.00
38303;BME280;24103;42.454;27.400;2023-01-29T02:45:14;101066.13;;;2.12;100.00
38303;BME280;24103;42.454;27.400;2023-01-29T02:47:54;101070.53;;;2.08;100.00
38303;BME280;24103;42.454;27.400;2023-01-29T02:50:25;101071.50;;;1.99;100.00
38303;BME280;24103;42.454;27.400;2023-01-29T02:53:07;101071.69;;;1.87;100.00
38303;BME280;24103;42.454;27.400;2023-01-29T02:58:08;101065.66;;;1.83;100.00
38303;BME280;24103;42.454;27.400;2023-01-29T03:00:37;101063.06;;;1.83;100.00
38303;BME280;24103;42.454;27.400;2023-01-29T03:03:09;101071.69;;;1.87;100.00
38303;BME280;24103;42.454;27.400;2023-01-29T03:05:42;101073.28;;;1.97;100.00
38303;BME280;24103;42.454;27.400;2023-01-29T03:08:10;101071.56;;;1.96;100.00
38303;BME280;24103;42.454;27.400;2023-01-29T03:10:40;101069.94;;;1.88;100.00
38303;BME280;24103;42.454;27.400;2023-01-29T03:13:21;101077.75;;;1.88;100.00
38303;BME280;24103;42.454;27.400;2023-01-29T03:15:51;101076.78;;;1.96;100.00
38303;BME280;24103;42.454;27.400;2023-01-29T03:18:25;101075.88;;;1.99;100.00
38303;BME280;24103;42.454;27.400;2023-01-29T03:20:56;101079.41;;;1.95;100.00
38303;BME280;24103;42.454;27.400;2023-01-29T03:23:24;101082.88;;;1.95;100.00
38303;BME280;24103;42.454;27.400;2023-01-29T03:26:09;101074.28;;;1.89;100.00
38303;BME280;24103;42.454;27.400;2023-01-29T03:28:54;101086.38;;;1.93;100.00
38303;BME280;24103;42.454;27.400;2023-01-29T03:31:38;101076.91;;;1.86;100.00
38303;BME280;24103;42.454;27.400;2023-01-29T03:34:22;101076.06;;;1.87;100.00
38303;BME280;24103;42.454;27.400;2023-01-29T03:37:00;101076.88;;;1.90;100.00
38303;BME280;24103;42.454;27.400;2023-01-29T03:39:27;101076.88;;;1.89;100.00
38303;BME280;24103;42.454;27.400;2023-01-29T03:49:38;101071.56;;;1.96;100.00
38303;BME280;24103;42.454;27.400;2023-01-29T03:52:16;101070.66;;;1.99;100.00
38303;BME280;24103;42.454;27.400;2023-01-29T03:58:15;101071.50;;;2.01;100.00
38303;BME280;24103;42.454;27.400;2023-01-29T04:00:13;101070.69;;;1.96;100.00
38303;BME280;24103;42.454;27.400;2023-01-29T04:02:49;101075.84;;;2.02;100.00
38303;BME280;24103;42.454;27.400;2023-01-29T04:05:20;101081.03;;;2.02;100.00
38303;BME280;24103;42.454;27.400;2023-01-29T04:07:47;101081.03;;;2.02;100.00
38303;BME280;24103;42.454;27.400;2023-01-29T04:10:17;101079.31;;;1.99;99.98
38303;BME280;24103;42.454;27.400;2023-01-29T04:12:48;101080.44;;;1.81;100.00
38303;BME280;24103;42.454;27.400;2023-01-29T04:15:15;101075.97;;;1.90;100.00
38303;BME280;24103;42.454;27.400;2023-01-29T04:17:51;101082.91;;;1.92;99.75
38303;BME280;24103;42.454;27.400;2023-01-29T04:20:17;101082.19;;;1.81;98.53
38303;BME280;24103;42.454;27.400;2023-01-29T04:22:47;101089.16;;;1.79;97.78
38303;BME280;24103;42.454;27.400;2023-01-29T04:25:18;101083.13;;;1.77;98.79
38303;BME280;24103;42.454;27.400;2023-01-29T04:30:43;101096.22;;;1.71;97.84
38303;BME280;24103;42.454;27.400;2023-01-29T04:33:28;101103.19;;;1.70;100.00
38303;BME280;24103;42.454;27.400;2023-01-29T04:36:02;101103.09;;;1.75;99.72
38303;BME280;24103;42.454;27.400;2023-01-29T04:38:33;101117.09;;;1.66;98.05
38303;BME280;24103;42.454;27.400;2023-01-29T04:41:10;101107.50;;;1.71;99.27
38303;BME280;24103;42.454;27.400;2023-01-29T04:43:39;101101.50;;;1.63;99.86
38303;BME280;24103;42.454;27.400;2023-01-29T04:46:16;101114.44;;;1.72;98.75
38303;BME280;24103;42.454;27.400;2023-01-29T04:54:04;101112.75;;;1.66;98.88
38303;BME280;24103;42.454;27.400;2023-01-29T04:59:04;101117.97;;;1.65;100.00
38303;BME280;24103;42.454;27.400;2023-01-29T05:01:31;101115.25;;;1.76;100.00
38303;BME280;24103;42.454;27.400;2023-01-29T05:03:58;101123.03;;;1.79;99.05
38303;BME280;24103;42.454;27.400;2023-01-29T05:06:25;101114.28;;;1.83;97.55
38303;BME280;24103;42.454;27.400;2023-01-29T05:08:56;101117.03;;;1.74;98.62
38303;BME280;24103;42.454;27.400;2023-01-29T05:11:23;101121.31;;;1.78;99.61
38303;BME280;24103;42.454;27.400;2023-01-29T05:13:49;101116.91;;;1.81;98.71
38303;BME280;24103;42.454;27.400;2023-01-29T05:16:22;101122.25;;;1.74;98.72
38303;BME280;24103;42.454;27.400;2023-01-29T05:18:50;101130.13;;;1.66;98.60
38303;BME280;24103;42.454;27.400;2023-01-29T05:21:15;101132.69;;;1.71;97.95
38303;BME280;24103;42.454;27.400;2023-01-29T05:23:41;101134.34;;;1.78;97.50
38303;BME280;24103;42.454;27.400;2023-01-29T05:26:17;101131.72;;;1.78;97.79
38303;BME280;24103;42.454;27.400;2023-01-29T05:29:01;101129.09;;;1.79;96.92
38303;BME280;24103;42.454;27.400;2023-01-29T05:31:27;101141.28;;;1.77;96.63
38303;BME280;24103;42.454;27.400;2023-01-29T05:33:52;101140.50;;;1.72;97.06
38303;BME280;24103;42.454;27.400;2023-01-29T05:36:19;101133.44;;;1.82;97.40
38303;BME280;24103;42.454;27.400;2023-01-29T05:38:45;101139.47;;;1.86;97.70
38303;BME280;24103;42.454;27.400;2023-01-29T05:41:10;101142.00;;;1.92;98.87
38303;BME280;24103;42.454;27.400;2023-01-29T05:43:35;101142.78;;;1.97;98.06
38303;BME280;24103;42.454;27.400;2023-01-29T05:46:01;101142.84;;;1.94;97.95
38303;BME280;24103;42.454;27.400;2023-01-29T05:48:27;101146.31;;;1.93;97.84
38303;BME280;24103;42.454;27.400;2023-01-29T05:50:52;101151.59;;;1.88;97.68
38303;BME280;24103;42.454;27.400;2023-01-29T05:53:18;101147.28;;;1.86;97.17
38303;BME280;24103;42.454;27.400;2023-01-29T05:55:44;101153.22;;;1.97;96.47
38303;BME280;24103;42.454;27.400;2023-01-29T05:58:09;101157.41;;;2.09;96.98
38303;BME280;24103;42.454;27.400;2023-01-29T06:00:35;101157.38;;;2.12;97.51
38303;BME280;24103;42.454;27.400;2023-01-29T06:03:00;101153.81;;;2.17;97.18
38303;BME280;24103;42.454;27.400;2023-01-29T06:05:25;101157.47;;;2.04;95.11
38303;BME280;24103;42.454;27.400;2023-01-29T06:07:51;101167.03;;;2.05;95.66
38303;BME280;24103;42.454;27.400;2023-01-29T06:10:16;101166.84;;;2.17;95.60
38303;BME280;24103;42.454;27.400;2023-01-29T06:12:42;101164.13;;;2.27;96.13
38303;BME280;24103;42.454;27.400;2023-01-29T06:15:08;101168.53;;;2.23;94.22
38303;BME280;24103;42.454;27.400;2023-01-29T06:17:33;101165.00;;;2.26;95.09
38303;BME280;24103;42.454;27.400;2023-01-29T06:19:59;101170.06;;;2.38;94.86
38303;BME280;24103;42.454;27.400;2023-01-29T06:22:25;101169.88;;;2.50;93.24
38303;BME280;24103;42.454;27.400;2023-01-29T06:24:50;101174.22;;;2.51;95.23
38303;BME280;24103;42.454;27.400;2023-01-29T06:27:15;101180.22;;;2.58;94.45
38303;BME280;24103;42.454;27.400;2023-01-29T06:29:41;101181.75;;;2.71;93.50
38303;BME280;24103;42.454;27.400;2023-01-29T06:32:06;101172.97;;;2.75;91.34
38303;BME280;24103;42.454;27.400;2023-01-29T06:34:32;101185.22;;;2.72;91.76
38303;BME280;24103;42.454;27.400;2023-01-29T06:36:57;101182.38;;;2.89;92.39
38303;BME280;24103;42.454;27.400;2023-01-29T06:39:22;101185.72;;;2.97;91.35
38303;BME280;24103;42.454;27.400;2023-01-29T06:41:47;101188.38;;;2.94;90.91
38303;BME280;24103;42.454;27.400;2023-01-29T06:44:13;101186.88;;;2.79;92.03
38303;BME280;24103;42.454;27.400;2023-01-29T06:46:38;101191.81;;;2.94;92.43
38303;BME280;24103;42.454;27.400;2023-01-29T06:49:04;101188.13;;;3.08;91.04
38303;BME280;24103;42.454;27.400;2023-01-29T06:51:29;101188.94;;;3.11;90.35
38303;BME280;24103;42.454;27.400;2023-01-29T06:53:54;101186.97;;;3.26;90.45
38303;BME280;24103;42.454;27.400;2023-01-29T06:56:20;101191.06;;;3.39;91.13
38303;BME280;24103;42.454;27.400;2023-01-29T06:58:46;101188.28;;;3.50;90.70
38303;BME280;24103;42.454;27.400;2023-01-29T07:01:11;101191.66;;;3.57;92.21
38303;BME280;24103;42.454;27.400;2023-01-29T07:03:37;101183.78;;;3.58;87.81
38303;BME280;24103;42.454;27.400;2023-01-29T07:06:02;101192.22;;;3.71;88.15
38303;BME280;24103;42.454;27.400;2023-01-29T07:08:28;101191.16;;;3.83;86.87
38303;BME280;24103;42.454;27.400;2023-01-29T07:11:00;101192.75;;;3.90;86.97
38303;BME280;24103;42.454;27.400;2023-01-29T07:13:25;101193.56;;;3.92;83.41
38303;BME280;24103;42.454;27.400;2023-01-29T07:15:50;101191.88;;;3.91;83.12
38303;BME280;24103;42.454;27.400;2023-01-29T07:18:16;101185.81;;;3.87;83.08
38303;BME280;24103;42.454;27.400;2023-01-29T07:20:41;101177.03;;;3.92;82.11
38303;BME280;24103;42.454;27.400;2023-01-29T07:23:13;101188.72;;;3.74;83.13
38303;BME280;24103;42.454;27.400;2023-01-29T07:25:39;101194.03;;;3.67;84.09
38303;BME280;24103;42.454;27.400;2023-01-29T07:28:05;101194.72;;;3.77;86.09
38303;BME280;24103;42.454;27.400;2023-01-29T07:30:31;101197.97;;;3.45;85.57
38303;BME280;24103;42.454;27.400;2023-01-29T07:33:06;101197.81;;;3.53;85.77
38303;BME280;24103;42.454;27.400;2023-01-29T07:35:35;101198.56;;;3.58;87.58
38303;BME280;24103;42.454;27.400;2023-01-29T07:38:00;101197.81;;;3.51;88.02
38303;BME280;24103;42.454;27.400;2023-01-29T07:43:01;101202.63;;;3.26;88.06
38303;BME280;24103;42.454;27.400;2023-01-29T07:45:27;101206.69;;;3.42;90.19
38303;BME280;24103;42.454;27.400;2023-01-29T07:47:53;101205.63;;;3.53;89.40
38303;BME280;24103;42.454;27.400;2023-01-29T07:50:19;101208.34;;;3.48;90.71
38303;BME280;24103;42.454;27.400;2023-01-29T07:52:45;101210.06;;;3.49;90.96
38303;BME280;24103;42.454;27.400;2023-01-29T07:55:10;101212.75;;;3.44;91.65
38303;BME280;24103;42.454;27.400;2023-01-29T07:57:35;101216.19;;;3.46;91.94
38303;BME280;24103;42.454;27.400;2023-01-29T08:00:01;101220.56;;;3.46;92.21
38303;BME280;24103;42.454;27.400;2023-01-29T08:02:26;101221.47;;;3.45;92.97
38303;BME280;24103;42.454;27.400;2023-01-29T08:04:51;101226.78;;;3.40;92.47
38303;BME280;24103;42.454;27.400;2023-01-29T08:07:17;101224.19;;;3.39;94.43
38303;BME280;24103;42.454;27.400;2023-01-29T08:09:42;101227.69;;;3.36;95.23
38303;BME280;24103;42.454;27.400;2023-01-29T08:12:07;101235.81;;;3.19;97.42
38303;BME280;24103;42.454;27.400;2023-01-29T08:14:33;101234.63;;;3.40;96.74
38303;BME280;24103;42.454;27.400;2023-01-29T08:16:58;101242.75;;;3.22;98.91
38303;BME280;24103;42.454;27.400;2023-01-29T08:19:24;101245.06;;;3.40;98.82
38303;BME280;24103;42.454;27.400;2023-01-29T08:21:49;101243.09;;;3.53;96.59
38303;BME280;24103;42.454;27.400;2023-01-29T08:24:14;101236.19;;;3.49;95.24
38303;BME280;24103;42.454;27.400;2023-01-29T08:26:40;101241.66;;;3.37;95.43
38303;BME280;24103;42.454;27.400;2023-01-29T08:29:05;101243.19;;;3.48;94.74
38303;BME280;24103;42.454;27.400;2023-01-29T08:31:30;101242.78;;;3.20;95.26
38303;BME280;24103;42.454;27.400;2023-01-29T08:33:56;101251.41;;;3.25;98.25
38303;BME280;24103;42.454;27.400;2023-01-29T08:36:22;101258.44;;;3.20;100.00
38303;BME280;24103;42.454;27.400;2023-01-29T08:38:48;101261.88;;;3.24;100.00
38303;BME280;24103;42.454;27.400;2023-01-29T08:41:13;101263.47;;;3.32;100.00
38303;BME280;24103;42.454;27.400;2023-01-29T08:43:38;101264.53;;;3.21;100.00
38303;BME280;24103;42.454;27.400;2023-01-29T08:46:04;101269.13;;;3.03;100.00
38303;BME280;24103;42.454;27.400;2023-01-29T08:48:30;101271.59;;;3.14;100.00
38303;BME280;24103;42.454;27.400;2023-01-29T08:50:56;101279.56;;;3.05;100.00
38303;BME280;24103;42.454;27.400;2023-01-29T08:53:23;101268.13;;;3.13;100.00
38303;BME280;24103;42.454;27.400;2023-01-29T08:55:48;101271.63;;;3.12;100.00
38303;BME280;24103;42.454;27.400;2023-01-29T08:58:14;101276.97;;;3.03;100.00
38303;BME280;24103;42.454;27.400;2023-01-29T09:00:39;101277.91;;;2.99;100.00
38303;BME280;24103;42.454;27.400;2023-01-29T09:03:05;101275.91;;;3.15;100.00
38303;BME280;24103;42.454;27.400;2023-01-29T09:05:31;101282.75;;;3.25;100.00
38303;BME280;24103;42.454;27.400;2023-01-29T09:07:58;101274.91;;;3.25;100.00
38303;BME280;24103;42.454;27.400;2023-01-29T09:10:23;101272.16;;;3.33;100.00
38303;BME280;24103;42.454;27.400;2023-01-29T09:12:49;101276.78;;;3.17;100.00
38303;BME280;24103;42.454;27.400;2023-01-29T09:15:14;101280.66;;;2.88;100.00
38303;BME280;24103;42.454;27.400;2023-01-29T09:17:39;101282.47;;;2.85;100.00
38303;BME280;24103;42.454;27.400;2023-01-29T09:20:05;101283.94;;;3.03;100.00
38303;BME280;24103;42.454;27.400;2023-01-29T09:22:31;101277.53;;;3.24;100.00
38303;BME280;24103;42.454;27.400;2023-01-29T09:24:56;101284.03;;;3.53;100.00
38303;BME280;24103;42.454;27.400;2023-01-29T09:27:22;101276.16;;;3.54;100.00
38303;BME280;24103;42.454;27.400;2023-01-29T09:29:47;101270.81;;;3.62;100.00
38303;BME280;24103;42.454;27.400;2023-01-29T09:32:13;101273.16;;;3.77;100.00
38303;BME280;24103;42.454;27.400;2023-01-29T09:34:38;101272.91;;;3.91;100.00
38303;BME280;24103;42.454;27.400;2023-01-29T09:37:04;101264.25;;;3.87;100.00
38303;BME280;24103;42.454;27.400;2023-01-29T09:39:29;101262.28;;;3.99;100.00
38303;BME280;24103;42.454;27.400;2023-01-29T09:45:05;101250.59;;;4.17;100.00
38303;BME280;24103;42.454;27.400;2023-01-29T09:47:36;101242.50;;;4.31;100.00
38303;BME280;24103;42.454;27.400;2023-01-29T09:50:06;101235.38;;;4.37;100.00
38303;BME280;24103;42.454;27.400;2023-01-29T09:52:36;101241.56;;;4.33;100.00
38303;BME280;24103;42.454;27.400;2023-01-29T09:55:09;101239.66;;;4.40;100.00
38303;BME280;24103;42.454;27.400;2023-01-29T09:57:52;101238.34;;;4.19;100.00
38303;BME280;24103;42.454;27.400;2023-01-29T10:00:23;101240.22;;;4.14;100.00
38303;BME280;24103;42.454;27.400;2023-01-29T10:02:58;101241.59;;;4.32;100.00
38303;BME280;24103;42.454;27.400;2023-01-29T10:08:15;101245.53;;;4.09;100.00
38303;BME280;24103;42.454;27.400;2023-01-29T10:10:53;101240.53;;;3.97;100.00
38303;BME280;24103;42.454;27.400;2023-01-29T10:25:47;101237.13;;;3.93;100.00
38303;BME280;24103;42.454;27.400;2023-01-29T10:28:17;101234.50;;;3.95;100.00
38303;BME280;24103;42.454;27.400;2023-01-29T10:30:45;101236.09;;;4.02;100.00
38303;BME280;24103;42.454;27.400;2023-01-29T10:33:14;101236.69;;;4.16;100.00
38303;BME280;24103;42.454;27.400;2023-01-29T10:35:42;101226.22;;;4.16;100.00
38303;BME280;24103;42.454;27.400;2023-01-29T10:38:43;101229.25;;;3.95;100.00
38303;BME280;24103;42.454;27.400;2023-01-29T10:41:14;101224.25;;;3.82;100.00
38303;BME280;24103;42.454;27.400;2023-01-29T10:46:33;101219.25;;;4.15;100.00
38303;BME280;24103;42.454;27.400;2023-01-29T10:49:27;101218.28;;;4.21;100.00
38303;BME280;24103;42.454;27.400;2023-01-29T10:52:09;101218.09;;;4.29;100.00
38303;BME280;24103;42.454;27.400;2023-01-29T10:54:48;101211.72;;;4.42;100.00
38303;BME280;24103;42.454;27.400;2023-01-29T11:02:20;101192.44;;;4.46;100.00
38303;BME280;24103;42.454;27.400;2023-01-29T11:04:46;101192.34;;;4.51;100.00
38303;BME280;24103;42.454;27.400;2023-01-29T11:07:12;101192.28;;;4.54;100.00
38303;BME280;24103;42.454;27.400;2023-01-29T11:09:44;101196.59;;;4.55;100.00
38303;BME280;24103;42.454;27.400;2023-01-29T11:12:19;101192.34;;;4.51;100.00
38303;BME280;24103;42.454;27.400;2023-01-29T11:14:52;101189.56;;;4.57;100.00
38303;BME280;24103;42.454;27.400;2023-01-29T11:17:20;101185.25;;;4.56;100.00
38303;BME280;24103;42.454;27.400;2023-01-29T11:19:47;101182.53;;;4.60;100.00
38303;BME280;24103;42.454;27.400;2023-01-29T11:24:43;101178.66;;;4.39;100.00
38303;BME280;24103;42.454;27.400;2023-01-29T11:27:13;101173.59;;;4.30;100.00
38303;BME280;24103;42.454;27.400;2023-01-29T11:29:46;101173.38;;;4.41;100.00
38303;BME280;24103;42.454;27.400;2023-01-29T11:37:20;101174.63;;;4.23;100.00
38303;BME280;24103;42.454;27.400;2023-01-29T11:39:46;101168.78;;;4.12;100.00
38303;BME280;24103;42.454;27.400;2023-01-29T11:42:21;101163.28;;;4.24;100.00
38303;BME280;24103;42.454;27.400;2023-01-29T11:44:47;101154.59;;;4.22;100.00
38303;BME280;24103;42.454;27.400;2023-01-29T11:47:17;101150.16;;;4.25;100.00
38303;BME280;24103;42.454;27.400;2023-01-29T11:52:16;101142.13;;;4.33;98.51
38303;BME280;24103;42.454;27.400;2023-01-29T11:54:47;101137.13;;;4.24;97.87
38303;BME280;24103;42.454;27.400;2023-01-29T11:57:27;101137.84;;;4.31;100.00
38303;BME280;24103;42.454;27.400;2023-01-29T11:59:54;101137.06;;;4.25;99.67
38303;BME280;24103;42.454;27.400;2023-01-29T12:05:22;101135.53;;;4.17;100.00
38303;BME280;24103;42.454;27.400;2023-01-29T12:07:49;101136.13;;;4.30;99.00
38303;BME280;24103;42.454;27.400;2023-01-29T12:13:03;101136.03;;;4.34;99.27
38303;BME280;24103;42.454;27.400;2023-01-29T12:15:29;101137.88;;;4.29;98.23
38303;BME280;24103;42.454;27.400;2023-01-29T12:20:28;101142.00;;;4.39;99.68
38303;BME280;24103;42.454;27.400;2023-01-29T12:22:56;101143.91;;;4.33;99.60
38303;BME280;24103;42.454;27.400;2023-01-29T12:25:46;101144.72;;;4.35;100.00
38303;BME280;24103;42.454;27.400;2023-01-29T12:28:22;101145.53;;;4.37;99.31
38303;BME280;24103;42.454;27.400;2023-01-29T12:33:45;101141.16;;;4.39;97.94
38303;BME280;24103;42.454;27.400;2023-01-29T12:36:16;101136.06;;;4.33;94.80
38303;BME280;24103;42.454;27.400;2023-01-29T12:38:42;101138.78;;;4.28;97.93
38303;BME280;24103;42.454;27.400;2023-01-29T12:43:37;101138.47;;;4.40;100.00
38303;BME280;24103;42.454;27.400;2023-01-29T12:46:09;101141.88;;;4.46;100.00
38303;BME280;24103;42.454;27.400;2023-01-29T12:48:37;101134.88;;;4.46;96.88
38303;BME280;24103;42.454;27.400;2023-01-29T12:51:05;101137.44;;;4.49;96.09
38303;BME280;24103;42.454;27.400;2023-01-29T12:53:40;101141.97;;;4.41;96.23
38303;BME280;24103;42.454;27.400;2023-01-29T12:56:17;101138.63;;;4.34;95.86
38303;BME280;24103;42.454;27.400;2023-01-29T12:58:47;101150.78;;;4.37;97.15
38303;BME280;24103;42.454;27.400;2023-01-29T13:01:15;101147.34;;;4.35;96.58
38303;BME280;24103;42.454;27.400;2023-01-29T13:03:53;101147.31;;;4.36;95.39
38303;BME280;24103;42.454;27.400;2023-01-29T13:06:25;101146.53;;;4.33;95.28
38303;BME280;24103;42.454;27.400;2023-01-29T13:08:57;101142.44;;;4.21;93.77
38303;BME280;24103;42.454;27.400;2023-01-29T13:11:34;101147.47;;;4.29;96.44
38303;BME280;24103;42.454;27.400;2023-01-29T13:14:21;101144.31;;;4.14;96.38
38303;BME280;24103;42.454;27.400;2023-01-29T13:16:50;101152.25;;;4.10;95.74
38303;BME280;24103;42.454;27.400;2023-01-29T13:21:48;101151.31;;;4.12;97.37
38303;BME280;24103;42.454;27.400;2023-01-29T13:24:20;101151.34;;;4.11;96.39
38303;BME280;24103;42.454;27.400;2023-01-29T13:26:47;101156.56;;;4.11;95.87
38303;BME280;24103;42.454;27.400;2023-01-29T13:29:31;101158.13;;;4.21;96.34
38303;BME280;24103;42.454;27.400;2023-01-29T13:31:58;101165.31;;;4.11;95.49
38303;BME280;24103;42.454;27.400;2023-01-29T13:34:28;101157.56;;;4.05;94.21
38303;BME280;24103;42.454;27.400;2023-01-29T13:37:02;101165.34;;;4.10;95.16
38303;BME280;24103;42.454;27.400;2023-01-29T13:39:34;101161.84;;;4.09;96.42
38303;BME280;24103;42.454;27.400;2023-01-29T13:42:13;101160.13;;;4.08;95.39
38303;BME280;24103;42.454;27.400;2023-01-29T13:44:39;101168.94;;;4.02;96.02
38303;BME280;24103;42.454;27.400;2023-01-29T13:47:06;101164.50;;;4.08;95.79
38303;BME280;24103;42.454;27.400;2023-01-29T13:49:37;101155.06;;;4.00;94.27
38303;BME280;24103;42.454;27.400;2023-01-29T13:54:48;101159.28;;;4.08;97.36
38303;BME280;24103;42.454;27.400;2023-01-29T13:59:58;101172.19;;;4.14;97.00
38303;BME280;24103;42.454;27.400;2023-01-29T14:02:27;101170.72;;;4.02;98.16
38303;BME280;24103;42.454;27.400;2023-01-29T14:07:38;101173.38;;;3.99;97.53
38303;BME280;24103;42.454;27.400;2023-01-29T14:12:42;101176.09;;;3.94;99.73
38303;BME280;24103;42.454;27.400;2023-01-29T14:15:18;101186.50;;;3.96;99.46
38303;BME280;24103;42.454;27.400;2023-01-29T14:17:57;101184.81;;;3.95;99.58
38303;BME280;24103;42.454;27.400;2023-01-29T14:20:27;101185.63;;;3.97;100.00
38303;BME280;24103;42.454;27.400;2023-01-29T14:22:55;101181.47;;;3.88;100.00
38303;BME280;24103;42.454;27.400;2023-01-29T14:25:26;101185.97;;;3.81;100.00
38303;BME280;24103;42.454;27.400;2023-01-29T14:27:52;101191.25;;;3.77;100.00
38303;BME280;24103;42.454;27.400;2023-01-29T14:30:18;101192.25;;;3.69;100.00
38303;BME280;24103;42.454;27.400;2023-01-29T14:32:46;101197.28;;;3.80;100.00
38303;BME280;24103;42.454;27.400;2023-01-29T14:35:23;101199.44;;;3.60;100.00